»·PEaware :: N1974R CYQR-KMOT

N1974R :: CYQR-KMOT

FLIGHT INFORMATION

Flight Status: Arrived
Operator: Privately registered:
United States
More flights under this callsign
Pilot: Wayne R. (17783)
Aircraft: PIPER PA-28R-201 ARROW
(P28R)
More flights by this aircraft type
Origin: CYQR Regina
Canada
Destination: KMOT Minot Intl
United States
More flights between these airports :: More routes between these airports
Route:
File this flight plan on PilotEdge
Remarks:
Altitude:
(Current/Filed)
5,500ft
Speed:
(Current/Filed)
135kts
Departed: 18-Jul-20 03:40 PM
Arrived: 18-Jul-20 05:06 PM
Distance/Time
Traveled:
186nm/1:25
Distance/Time
To Go:
Arrived

Flight Plot

Page will automatically refresh every two minutes.


Map Options




Map Legend


Flown Route
Filed Route
Departure Airport
Arrival Airport
Navaid (VOR, NDB)
Fix

Horizontal Profiles

Position Reports

Time Latitude Longitude Heading Altitude Ground
Speed
18-Jul-20 15:38 50.335166 -104.783368 187 5238ft 112kts
18-Jul-20 15:39 50.304462 -104.791186 187 5680ft 123kts
18-Jul-20 15:40 50.266574 -104.795804 146 5549ft 142kts
18-Jul-20 15:41 50.250945 -104.740016 108 5554ft 143kts
18-Jul-20 15:42 50.237646 -104.681138 108 5548ft 143kts
18-Jul-20 15:43 50.224427 -104.622476 108 5548ft 143kts
18-Jul-20 15:44 50.211185 -104.563621 108 5548ft 143kts
18-Jul-20 15:45 50.198055 -104.505087 108 5548ft 143kts
18-Jul-20 15:46 50.184882 -104.446176 108 5548ft 143kts
18-Jul-20 15:47 50.171889 -104.387987 108 5658ft 137kts
18-Jul-20 15:48 50.159675 -104.333287 108 5955ft 131kts
18-Jul-20 15:49 50.146944 -104.280469 113 6253ft 129kts
18-Jul-20 15:50 50.132212 -104.229298 113 6552ft 128kts
18-Jul-20 15:51 50.117640 -104.178657 113 6850ft 128kts
18-Jul-20 15:52 50.105621 -104.126494 107 7151ft 127kts
18-Jul-20 15:53 50.082404 -104.087063 130 7440ft 127kts
18-Jul-20 15:54 50.055937 -104.046596 136 7485ft 138kts
18-Jul-20 15:55 50.030555 -104.000901 136 7486ft 141kts
18-Jul-20 15:56 50.001841 -103.959594 137 7485ft 141kts
18-Jul-20 15:57 49.972680 -103.918777 137 7485ft 141kts
18-Jul-20 15:58 49.943527 -103.877947 137 7485ft 141kts
18-Jul-20 15:59 49.914386 -103.837127 137 7485ft 141kts
18-Jul-20 16:00 49.885267 -103.796310 137 7485ft 141kts
18-Jul-20 16:01 49.856209 -103.755565 137 7485ft 141kts
18-Jul-20 16:02 49.827168 -103.714782 137 7485ft 141kts
18-Jul-20 16:03 49.798262 -103.673455 132 7485ft 141kts
18-Jul-20 16:04 49.771155 -103.629691 132 7484ft 141kts
18-Jul-20 16:05 49.744286 -103.585392 130 7485ft 141kts
18-Jul-20 16:06 49.718933 -103.541543 130 7687ft 131kts
18-Jul-20 16:07 49.695482 -103.499806 129 7981ft 127kts
18-Jul-20 16:08 49.672460 -103.458662 130 8279ft 125kts
18-Jul-20 16:09 49.650592 -103.416813 127 8577ft 125kts
18-Jul-20 16:10 49.627066 -103.377785 132 8869ft 124kts
18-Jul-20 16:11 49.603149 -103.339334 132 9166ft 124kts
18-Jul-20 16:12 49.579288 -103.300958 132 9463ft 123kts
18-Jul-20 16:13 49.555614 -103.262877 132 9759ft 122kts
18-Jul-20 16:14 49.532124 -103.225075 132 10054ft 122kts
18-Jul-20 16:15 49.508789 -103.187514 132 10350ft 121kts
18-Jul-20 16:16 49.485554 -103.150137 132 10646ft 120kts
18-Jul-20 16:17 49.462455 -103.112986 132 10942ft 119kts
18-Jul-20 16:18 49.439571 -103.076197 132 11236ft 118kts
18-Jul-20 16:19 49.416595 -103.039220 132 11446ft 124kts
18-Jul-20 16:20 49.391258 -102.999688 133 11444ft 133kts
18-Jul-20 16:21 49.364951 -102.958515 133 11443ft 136kts
18-Jul-20 16:22 49.338378 -102.916967 133 11443ft 136kts
18-Jul-20 16:23 49.311877 -102.875487 132 11441ft 136kts
18-Jul-20 16:24 49.285417 -102.834312 132 11442ft 134kts
18-Jul-20 16:25 49.259322 -102.793680 133 11443ft 133kts
18-Jul-20 16:26 49.233437 -102.752807 133 11443ft 133kts
18-Jul-20 16:27 49.207582 -102.711981 133 11444ft 133kts
18-Jul-20 16:28 49.181685 -102.671028 132 11443ft 133kts
18-Jul-20 16:29 49.154518 -102.627592 133 11294ft 151kts
18-Jul-20 16:30 49.124775 -102.579295 133 11156ft 159kts
18-Jul-20 16:31 49.094239 -102.529469 134 11019ft 161kts
18-Jul-20 16:33 49.063444 -102.479188 134 10886ft 163kts
18-Jul-20 16:34 49.032252 -102.428131 133 10757ft 165kts
18-Jul-20 16:35 49.000604 -102.376655 133 10631ft 167kts
18-Jul-20 16:36 48.968606 -102.324588 134 10496ft 169kts
18-Jul-20 16:37 48.936342 -102.272150 134 10351ft 170kts
18-Jul-20 16:38 48.903972 -102.219372 135 10208ft 170kts
18-Jul-20 16:39 48.869602 -102.169571 139 10041ft 170kts
18-Jul-20 16:40 48.834539 -102.120760 139 9874ft 170kts
18-Jul-20 16:41 48.799610 -102.072147 137 9708ft 172kts
18-Jul-20 16:42 48.764508 -102.022711 137 9544ft 172kts
18-Jul-20 16:43 48.729158 -101.973081 137 9382ft 173kts
18-Jul-20 16:44 48.693868 -101.923656 137 9224ft 173kts
18-Jul-20 16:45 48.658609 -101.874319 137 9067ft 172kts
18-Jul-20 16:46 48.623188 -101.825009 137 8910ft 173kts
18-Jul-20 16:47 48.587622 -101.775755 137 8758ft 173kts
18-Jul-20 16:47 48.558039 -101.734616 137 8633ft 173kts
18-Jul-20 16:49 48.516678 -101.677049 137 8463ft 173kts
18-Jul-20 16:50 48.481097 -101.627920 137 8316ft 173kts
18-Jul-20 16:50 48.451963 -101.586055 133 8170ft 174kts
18-Jul-20 16:51 48.417701 -101.533074 133 7879ft 177kts
18-Jul-20 16:53 48.377743 -101.470444 128 7544ft 177kts
18-Jul-20 16:53 48.352027 -101.422114 125 7308ft 177kts
18-Jul-20 16:54 48.326834 -101.366028 107 6729ft 143kts
18-Jul-20 16:56 48.311533 -101.305621 107 5848ft 126kts
18-Jul-20 16:56 48.301418 -101.264665 114 5210ft 125kts
18-Jul-20 16:57 48.299665 -101.215232 74 4457ft 119kts
18-Jul-20 16:58 48.304621 -101.165187 71 3716ft 126kts
18-Jul-20 16:59 48.288468 -101.125981 165 2607ft 119kts
18-Jul-20 17:00 48.266828 -101.135080 255 1950ft 83kts
18-Jul-20 17:01 48.259036 -101.166908 257 1769ft 80kts
18-Jul-20 17:02 48.255957 -101.200711 268 1795ft 79kts
18-Jul-20 17:03 48.257487 -101.228185 276 1847ft 54kts
18-Jul-20 17:04 48.257841 -101.252786 279 1733ft 65kts
18-Jul-20 17:05 48.257904 -101.271728 259 1657ft 31kts
18-Jul-20 17:06 48.256510 -101.278581 263 1677ft 23kts
18-Jul-20 17:07 48.255606 -101.285065 168 1697ft 10kts
18-Jul-20 17:08 48.254774 -101.283303 350 1695ft 0kts
18-Jul-20 17:09 48.254774 -101.283303 350 1695ft 0kts
18-Jul-20 17:10 48.254774 -101.283303 350 1695ft 0kts
18-Jul-20 17:11 48.254774 -101.283303 350 1695ft 0kts
18-Jul-20 17:12 48.254774 -101.283303 350 1695ft 0kts
18-Jul-20 17:13 48.254774 -101.283303 350 1695ft 0kts
18-Jul-20 17:14 48.254774 -101.283303 350 1695ft 0kts
18-Jul-20 17:15 48.254774 -101.283303 350 1695ft 0kts
18-Jul-20 17:16 48.254774 -101.283303 350 1695ft 0kts
18-Jul-20 17:17 48.254774 -101.283303 350 1695ft 0kts
18-Jul-20 17:18 48.254774 -101.283303 350 1695ft 0kts
18-Jul-20 17:19 48.254774 -101.283303 350 1695ft 0kts

Navigation Log

Ident Type
Flight plan parsing failed, navigation log unavailable